Flight Track Log - Related Links

Times and Time Zones

All times are in EDT time to prevent confusion due to time zone crossing. See the N462B flight status page for this flight to view local times or setup timezone preferences in your user account.

Time Position Orientation Groundspeed Altitude Reporting Facility
EDT Latitude Longitude Course Direction KTS MPH feet Rate Location/Type
Thu 05:52:40 PM 34.9833 -89.9667 172° South 215 247 3,100  Level KMEM
Thu 05:53:34 PM 34.9167 -89.9667 180° South 262 302 6,100 3,000 Climbing KMEM
Thu 05:54:34 PM 34.8500 -89.9833 192° South 272 313 8,800 2,492 Climbing KMEM
Thu 05:55:44 PM 34.7711 -90.0233 203° Southwest 284 327 11,500 2,262 Climbing Memphis Center
Thu 05:56:44 PM 34.6981 -89.9783 153° Southeast 264 304 13,700 1,950 Climbing Memphis Center
Thu 05:57:44 PM 34.6331 -89.9028 136° Southeast 296 341 15,400 1,650 Climbing Memphis Center
Thu 05:58:44 PM 34.5617 -89.8275 139° Southeast 330 380 17,000 1,750 Climbing Memphis Center
Thu 05:59:44 PM 34.4925 -89.7550 139° Southeast 335 386 18,900 1,850 Climbing Memphis Center
Thu 06:00:44 PM 34.4192 -89.6797 140° Southeast 340 391 20,700 1,600 Climbing Memphis Center
Thu 06:01:44 PM 34.3456 -89.6050 140° Southeast 347 399 22,100 1,450 Climbing Memphis Center
Thu 06:02:44 PM 34.2681 -89.5278 141° Southeast 352 405 23,600 1,500 Climbing Memphis Center
Thu 06:03:44 PM 34.1964 -89.4531 139° Southeast 352 405 25,100 1,500 Climbing Memphis Center
Thu 06:04:44 PM 34.1186 -89.3761 141° Southeast 357 411 26,600 1,350 Climbing Memphis Center
Thu 06:05:44 PM 34.0514 -89.3067 139° Southeast 357 411 27,800 1,350 Climbing Memphis Center
Thu 06:06:44 PM 33.9756 -89.2300 140° Southeast 357 411 29,300 1,650 Climbing Memphis Center
Thu 06:07:44 PM 33.9019 -89.1583 141° Southeast 357 411 31,100 1,650 Climbing Memphis Center
Thu 06:08:44 PM 33.8281 -89.0844 140° Southeast 357 411 32,600 1,450 Climbing Memphis Center
Thu 06:09:44 PM 33.7606 -89.0178 141° Southeast 339 390 34,000 1,200 Climbing Memphis Center
Thu 06:10:44 PM 33.6908 -88.9467 140° Southeast 334 384 35,000 500 Climbing Memphis Center
Thu 06:11:44 PM 33.6106 -88.8681 141° Southeast 346 398 35,000  Level Memphis Center
Thu 06:12:44 PM 33.5261 -88.7822 140° Southeast 366 421 35,000  Level Memphis Center
Thu 06:13:44 PM 33.4394 -88.6967 141° Southeast 387 445 35,000  Level Memphis Center
Thu 06:14:44 PM 33.3506 -88.6114 141° Southeast 403 464 35,000  Level Memphis Center
Thu 06:15:44 PM 33.2617 -88.5236 140° Southeast 409 471 35,000  Level Memphis Center
Thu 06:17:20 PM 33.1083 -88.3761 141° Southeast 419 482 35,000  Level Atlanta Center
Thu 06:18:20 PM 33.0197 -88.2875 140° Southeast 419 482 35,000  Level Atlanta Center
Thu 06:19:20 PM 32.9286 -88.2014 142° Southeast 419 482 35,000  Level Atlanta Center
Thu 06:20:20 PM 32.8378 -88.1106 140° Southeast 419 482 35,000  Level Atlanta Center
Thu 06:21:20 PM 32.7489 -88.0225 140° Southeast 419 482 35,000  Level Atlanta Center
Thu 06:22:20 PM 32.6636 -87.9469 143° Southeast 412 474 35,000  Level Atlanta Center
Thu 06:23:20 PM 32.5747 -87.8569 140° Southeast 417 480 35,000  Level Atlanta Center
Thu 06:24:20 PM 32.4833 -87.7692 141° Southeast 424 488 35,000  Level Atlanta Center
Thu 06:25:20 PM 32.3939 -87.6892 143° Southeast 424 488 35,000  Level Atlanta Center
Thu 06:26:20 PM 32.3006 -87.5994 141° Southeast 429 494 35,000 -300 Level Atlanta Center
Thu 06:27:20 PM 32.2053 -87.5047 140° Southeast 438 504 34,400 -850 Descending Atlanta Center
Thu 06:28:20 PM 32.1075 -87.4128 141° Southeast 446 513 33,300 -1,100 Descending Atlanta Center
Thu 06:29:20 PM 32.0119 -87.3233 142° Southeast 451 519 32,200 -1,150 Descending Atlanta Center
Thu 06:30:20 PM 31.9181 -87.2367 142° Southeast 446 513 31,000 -1,250 Descending Atlanta Center
Thu 06:31:20 PM 31.8244 -87.1456 140° Southeast 441 507 29,700 -1,404 Descending Atlanta Center
Thu 06:33:28 PM 31.6131 -86.9494 142° Southeast 445 512 26,600 -1,404 Descending Jacksonville Center
Thu 06:34:28 PM 31.5219 -86.8578 139° Southeast 451 519 25,300 -1,300 Descending Jacksonville Center
Thu 06:35:28 PM 31.4311 -86.7636 138° Southeast 445 512 24,000 -1,400 Descending Jacksonville Center
Thu 06:36:28 PM 31.3439 -86.6725 138° Southeast 438 504 22,500 -1,550 Descending Jacksonville Center
Thu 06:37:28 PM 31.2589 -86.5864 139° Southeast 421 484 20,900 -1,550 Descending Jacksonville Center
Thu 06:38:28 PM 31.1756 -86.5031 139° Southeast 411 473 19,400 -950 Descending Jacksonville Center
Thu 06:39:28 PM 31.1203 -86.3967 121° Southeast 394 453 19,000 -550 Descending Jacksonville Center
Thu 06:40:28 PM 31.0903 -86.2717 106° East 380 437 18,300 -900 Descending Jacksonville Center
Thu 06:41:28 PM 31.0619 -86.1519 105° East 380 437 17,200 -1,300 Descending Jacksonville Center
Thu 06:42:28 PM 31.0317 -86.0272 106° East 385 443 15,700 -1,677 Descending Jacksonville Center
Thu 06:43:01 PM 30.9978 -85.9583 120° Southeast 377 434 14,600 -1,600 Descending Jacksonville Center
Thu 06:43:28 PM 30.9733 -85.9356 141° Southeast 357 411 14,100 -1,517 Descending Jacksonville Center
Thu 06:44:28 PM 30.8800 -85.9133 168° South 318 366 12,400 -2,000 Descending Jacksonville Center
Thu 06:45:28 PM 30.7886 -85.8911 168° South 323 372 10,100 -2,250 Descending Jacksonville Center
Thu 06:46:28 PM 30.7119 -85.8742 169° South 312 359 7,900 -2,350 Descending Jacksonville Center
Thu 06:47:28 PM 30.6522 -85.8314 148° Southeast 274 315 5,400 -1,950 Descending Jacksonville Center
Thu 06:48:28 PM 30.5919 -85.8244 174° South 238 274 4,000 -1,100 Descending Jacksonville Center
Thu 06:49:28 PM 30.5331 -85.8397 193° South 217 250 3,200 -950 Descending Jacksonville Center
Thu 06:50:28 PM 30.4767 -85.8453 185° South 211 243 2,100 -900 Descending Jacksonville Center
Thu 06:51:28 PM 30.4289 -85.8292 164° South 196 226 1,400 -750 Descending Jacksonville Center
Thu 06:52:28 PM 30.3897 -85.8111 158° South 170 196 600 -600 Descending Jacksonville Center
Thu 06:53:28 PM 30.3461 -85.7978 165° South 155 178 200 -400 Descending Jacksonville Center
Thu 06:55:00 PM 30.3500 -85.7833 161° South  Level FlightAware Approximate
Thu 07:02:00 PM 30.3582 -85.7956 161° South  Level Estimated
Thu 07:03:00 PM 30.3582 -85.7956 161° South  Level Estimated
Thu 07:04:00 PM 30.3582 -85.7956 161° South  Level Estimated

Login

Don't have an account? Register now (free) for customized features, flight alerts, and more!